Edmonton, Alberta

2:06 AM MDT on April 27, 2015 (GMT -0600)
North Telford | | Change Station
CLOSE
Current Station
Personal Weather Station
Location: Leduc, ALBERTA
Elevation: 2385 ft
Nearby Weather Stations

Elev 2385 ft 53.27 °N, 113.54 °W | Updated 8 minutes ago

Partly Cloudy
Partly Cloudy
36.0 °F
Feels Like 36 °F
N
1.7
Wind Variable Wind from North

Today is forecast to be nearly the same temperature as yesterday.

Today
High -- | Low -- °F
--% Chance of Precip.
Yesterday
High -- | Low -- °F
Precip. -- in
6:08 AM 8:56 PM
Waxing Gibbous, 63% visible
Pressure 30.14 in
Visibility 15.0 miles
Clouds Few 12000 ft
Few 25000 ft
Windchill 36 °F
Dew Point 31 °F
Humidity 82%
Rainfall -999.00 in
Snow Depth Not available.
UV 0 out of 12
Pollen Not available.
Air Quality Not available.
Flu Activity Not available.
METAR CYEG 270700Z 13013KT 15SM FEW120 FEW250 02/M02 A3006 RMK AC1CI1 CI TR SLP206

More Conditions Fewer Conditions

Pressure 30.14 in
Visibility 15.0 miles
Clouds Few 12000 ft
Few 25000 ft
Windchill 36 °F
Dew Point 31 °F
Humidity 82%
Rainfall -999.00 in
Snow Depth Not available.
UV 0 out of 12
Pollen Not available.
Air Quality Not available.
Flu Activity Not available.
METAR CYEG 270700Z 13013KT 15SM FEW120 FEW250 02/M02 A3006 RMK AC1CI1 CI TR SLP206

More Conditions Fewer Conditions

10-Day Weather Forecast

Almanac

Astronomy

Apr. 27, 2015 Rise Set
Actual Time
Civil Twilight
Nautical Twilight
Astronomical Twilight
Moon
Length of Visible Light
Length of Day
Tomorrow will be .
, % of the Moon is Illuminated

Today's Extremes

Country Highs Country Lows

Community

WunderPhotos

Upload Photos

1,817,277 photos uploaded!

WunderBlogs® & News

Nearby

Air Quality

  Air Quality AQ Index Pollutant
Not available.

Snow Depth

Station Depth Elevation

Earthquake Activity

City Distance Mag. Time & Date
Minimum magnitude displayed is 2.5.

Coastal Water Temperatures

Place Temperature

Stations

Nearby Weather Stations

Station Location Temp. Windchill Dew Point Humidity Wind Precip. Elev Updated Type